sensor_id;sensor_type;location;lat;lon;timestamp;pressure;altitude;pressure_sealevel;temperature;humidity
41945;BME280;63122;52.424;13.458;2023-04-30T00:06:47;101346.25;;;10.19;100.00
41945;BME280;63122;52.424;13.458;2023-04-30T00:14:35;101353.97;;;10.01;100.00
41945;BME280;63122;52.424;13.458;2023-04-30T00:21:04;101360.88;;;9.92;100.00
41945;BME280;63122;52.424;13.458;2023-04-30T00:30:21;101366.72;;;9.74;100.00
41945;BME280;63122;52.424;13.458;2023-04-30T00:32:33;101374.28;;;9.68;100.00
41945;BME280;63122;52.424;13.458;2023-04-30T00:37:44;101379.13;;;9.62;100.00
41945;BME280;63122;52.424;13.458;2023-04-30T00:40:25;101383.16;;;9.67;100.00
41945;BME280;63122;52.424;13.458;2023-04-30T00:42:24;101381.88;;;9.61;100.00
41945;BME280;63122;52.424;13.458;2023-04-30T00:44:27;101387.13;;;9.61;100.00
41945;BME280;63122;52.424;13.458;2023-04-30T00:46:27;101386.16;;;9.62;100.00
41945;BME280;63122;52.424;13.458;2023-04-30T00:48:23;101388.34;;;9.57;100.00
41945;BME280;63122;52.424;13.458;2023-04-30T00:50:19;101397.72;;;9.49;100.00
41945;BME280;63122;52.424;13.458;2023-04-30T00:52:14;101388.53;;;9.44;100.00
41945;BME280;63122;52.424;13.458;2023-04-30T00:54:10;101392.84;;;9.45;100.00
41945;BME280;63122;52.424;13.458;2023-04-30T00:56:07;101389.75;;;9.40;100.00
41945;BME280;63122;52.424;13.458;2023-04-30T00:58:04;101398.00;;;9.35;100.00
41945;BME280;63122;52.424;13.458;2023-04-30T01:00:00;101400.91;;;9.32;100.00
41945;BME280;63122;52.424;13.458;2023-04-30T01:01:59;101397.91;;;9.36;100.00
41945;BME280;63122;52.424;13.458;2023-04-30T01:03:54;101409.91;;;9.29;100.00
41945;BME280;63122;52.424;13.458;2023-04-30T01:05:50;101407.63;;;9.25;100.00
41945;BME280;63122;52.424;13.458;2023-04-30T01:07:45;101412.19;;;9.22;100.00
41945;BME280;63122;52.424;13.458;2023-04-30T01:09:43;101412.56;;;9.18;100.00
41945;BME280;63122;52.424;13.458;2023-04-30T01:11:47;101411.03;;;9.15;100.00
41945;BME280;63122;52.424;13.458;2023-04-30T01:13:52;101413.06;;;9.12;100.00
41945;BME280;63122;52.424;13.458;2023-04-30T01:15:55;101414.88;;;9.11;100.00
41945;BME280;63122;52.424;13.458;2023-04-30T01:17:57;101420.13;;;9.11;100.00
41945;BME280;63122;52.424;13.458;2023-04-30T01:19:55;101418.47;;;8.99;100.00
41945;BME280;63122;52.424;13.458;2023-04-30T01:21:51;101424.44;;;9.01;100.00
41945;BME280;63122;52.424;13.458;2023-04-30T01:26:32;101419.56;;;8.96;100.00
41945;BME280;63122;52.424;13.458;2023-04-30T01:28:36;101423.03;;;8.97;100.00
41945;BME280;63122;52.424;13.458;2023-04-30T01:30:35;101418.38;;;8.89;100.00
41945;BME280;63122;52.424;13.458;2023-04-30T01:32:31;101426.50;;;8.86;100.00
41945;BME280;63122;52.424;13.458;2023-04-30T01:34:27;101425.44;;;8.88;100.00
41945;BME280;63122;52.424;13.458;2023-04-30T01:36:34;101431.91;;;8.84;100.00
41945;BME280;63122;52.424;13.458;2023-04-30T01:38:40;101426.16;;;8.79;100.00
41945;BME280;63122;52.424;13.458;2023-04-30T01:40:43;101429.50;;;8.70;100.00
41945;BME280;63122;52.424;13.458;2023-04-30T01:42:48;101428.94;;;8.66;100.00
41945;BME280;63122;52.424;13.458;2023-04-30T01:45:06;101430.59;;;8.67;100.00
41945;BME280;63122;52.424;13.458;2023-04-30T01:47:13;101432.63;;;8.63;100.00
41945;BME280;63122;52.424;13.458;2023-04-30T01:49:24;101438.72;;;8.64;100.00
41945;BME280;63122;52.424;13.458;2023-04-30T01:51:27;101445.41;;;8.57;100.00
41945;BME280;63122;52.424;13.458;2023-04-30T01:53:32;101441.59;;;8.49;100.00
41945;BME280;63122;52.424;13.458;2023-04-30T01:55:40;101452.41;;;8.45;100.00
41945;BME280;63122;52.424;13.458;2023-04-30T01:57:39;101446.34;;;8.44;100.00
41945;BME280;63122;52.424;13.458;2023-04-30T01:59:37;101448.00;;;8.45;100.00
41945;BME280;63122;52.424;13.458;2023-04-30T02:01:36;101456.16;;;8.42;100.00
41945;BME280;63122;52.424;13.458;2023-04-30T02:03:32;101453.75;;;8.39;100.00
41945;BME280;63122;52.424;13.458;2023-04-30T02:05:27;101457.69;;;8.33;100.00
41945;BME280;63122;52.424;13.458;2023-04-30T02:07:35;101457.44;;;8.25;100.00
41945;BME280;63122;52.424;13.458;2023-04-30T02:09:32;101455.28;;;8.30;100.00
41945;BME280;63122;52.424;13.458;2023-04-30T02:11:27;101462.94;;;8.33;100.00
41945;BME280;63122;52.424;13.458;2023-04-30T02:13:23;101469.16;;;8.32;100.00
41945;BME280;63122;52.424;13.458;2023-04-30T02:15:18;101469.50;;;8.28;100.00
41945;BME280;63122;52.424;13.458;2023-04-30T02:17:17;101478.47;;;8.25;100.00
41945;BME280;63122;52.424;13.458;2023-04-30T02:19:13;101482.63;;;8.28;100.00
41945;BME280;63122;52.424;13.458;2023-04-30T02:21:09;101479.06;;;8.29;100.00
41945;BME280;63122;52.424;13.458;2023-04-30T02:23:05;101489.81;;;8.26;100.00
41945;BME280;63122;52.424;13.458;2023-04-30T02:25:03;101484.31;;;8.29;100.00
41945;BME280;63122;52.424;13.458;2023-04-30T02:26:58;101481.91;;;8.26;100.00
41945;BME280;63122;52.424;13.458;2023-04-30T02:28:55;101483.34;;;8.18;100.00
41945;BME280;63122;52.424;13.458;2023-04-30T02:30:50;101485.13;;;8.18;100.00
41945;BME280;63122;52.424;13.458;2023-04-30T02:32:50;101492.41;;;8.14;100.00
41945;BME280;63122;52.424;13.458;2023-04-30T02:34:45;101489.28;;;8.09;100.00
41945;BME280;63122;52.424;13.458;2023-04-30T02:36:41;101492.50;;;8.01;100.00
41945;BME280;63122;52.424;13.458;2023-04-30T02:38:36;101502.53;;;7.96;100.00
41945;BME280;63122;52.424;13.458;2023-04-30T02:40:32;101501.75;;;7.94;100.00
41945;BME280;63122;52.424;13.458;2023-04-30T02:42:27;101495.69;;;7.93;100.00
41945;BME280;63122;52.424;13.458;2023-04-30T02:44:23;101494.97;;;7.91;100.00
41945;BME280;63122;52.424;13.458;2023-04-30T02:46:18;101496.50;;;7.94;100.00
41945;BME280;63122;52.424;13.458;2023-04-30T02:48:16;101506.91;;;7.96;100.00
41945;BME280;63122;52.424;13.458;2023-04-30T02:50:11;101502.63;;;7.95;100.00
41945;BME280;63122;52.424;13.458;2023-04-30T02:52:06;101500.72;;;7.97;100.00
41945;BME280;63122;52.424;13.458;2023-04-30T02:54:01;101499.13;;;7.94;100.00
41945;BME280;63122;52.424;13.458;2023-04-30T02:55:57;101499.50;;;7.89;100.00
41945;BME280;63122;52.424;13.458;2023-04-30T02:57:52;101502.22;;;7.88;100.00
41945;BME280;63122;52.424;13.458;2023-04-30T02:59:47;101502.44;;;7.85;100.00
41945;BME280;63122;52.424;13.458;2023-04-30T03:01:43;101511.06;;;7.87;100.00
41945;BME280;63122;52.424;13.458;2023-04-30T03:03:41;101503.91;;;7.89;100.00
41945;BME280;63122;52.424;13.458;2023-04-30T03:05:36;101515.25;;;7.89;100.00
41945;BME280;63122;52.424;13.458;2023-04-30T03:07:32;101510.09;;;7.88;100.00
41945;BME280;63122;52.424;13.458;2023-04-30T03:09:29;101519.06;;;7.85;100.00
41945;BME280;63122;52.424;13.458;2023-04-30T03:11:25;101520.34;;;7.80;100.00
41945;BME280;63122;52.424;13.458;2023-04-30T03:13:20;101524.38;;;7.72;100.00
41945;BME280;63122;52.424;13.458;2023-04-30T03:15:17;101522.72;;;7.71;100.00
41945;BME280;63122;52.424;13.458;2023-04-30T03:17:12;101521.03;;;7.70;100.00
41945;BME280;63122;52.424;13.458;2023-04-30T03:19:10;101527.66;;;7.63;100.00
41945;BME280;63122;52.424;13.458;2023-04-30T03:21:05;101528.00;;;7.58;100.00
41945;BME280;63122;52.424;13.458;2023-04-30T03:23:01;101516.25;;;7.51;100.00
41945;BME280;63122;52.424;13.458;2023-04-30T03:24:56;101525.19;;;7.48;100.00
41945;BME280;63122;52.424;13.458;2023-04-30T03:26:52;101525.53;;;7.44;100.00
41945;BME280;63122;52.424;13.458;2023-04-30T03:28:47;101533.53;;;7.42;100.00
41945;BME280;63122;52.424;13.458;2023-04-30T03:30:42;101531.97;;;7.27;100.00
41945;BME280;63122;52.424;13.458;2023-04-30T03:32:37;101530.75;;;7.19;100.00
41945;BME280;63122;52.424;13.458;2023-04-30T03:34:35;101535.13;;;7.19;100.00
41945;BME280;63122;52.424;13.458;2023-04-30T03:36:30;101532.28;;;7.22;100.00
41945;BME280;63122;52.424;13.458;2023-04-30T03:38:26;101532.91;;;7.26;100.00
41945;BME280;63122;52.424;13.458;2023-04-30T03:40:21;101527.47;;;7.16;100.00
41945;BME280;63122;52.424;13.458;2023-04-30T03:42:16;101538.72;;;7.05;100.00
41945;BME280;63122;52.424;13.458;2023-04-30T03:44:12;101535.38;;;7.03;100.00
41945;BME280;63122;52.424;13.458;2023-04-30T03:46:15;101531.22;;;6.87;100.00
41945;BME280;63122;52.424;13.458;2023-04-30T03:48:10;101539.47;;;6.94;100.00
41945;BME280;63122;52.424;13.458;2023-04-30T03:50:14;101538.00;;;6.90;100.00
41945;BME280;63122;52.424;13.458;2023-04-30T03:52:12;101547.03;;;6.86;100.00
41945;BME280;63122;52.424;13.458;2023-04-30T03:54:09;101547.16;;;6.84;100.00
41945;BME280;63122;52.424;13.458;2023-04-30T03:56:06;101543.38;;;6.88;100.00
41945;BME280;63122;52.424;13.458;2023-04-30T03:58:04;101544.31;;;6.74;100.00
41945;BME280;63122;52.424;13.458;2023-04-30T04:00:03;101548.09;;;6.70;100.00
41945;BME280;63122;52.424;13.458;2023-04-30T04:02:04;101553.00;;;6.75;100.00
41945;BME280;63122;52.424;13.458;2023-04-30T04:04:02;101553.88;;;6.75;100.00
41945;BME280;63122;52.424;13.458;2023-04-30T04:06:05;101558.78;;;6.80;100.00
41945;BME280;63122;52.424;13.458;2023-04-30T04:08:02;101561.81;;;6.74;100.00
41945;BME280;63122;52.424;13.458;2023-04-30T04:10:01;101572.44;;;6.72;100.00
41945;BME280;63122;52.424;13.458;2023-04-30T04:11:59;101570.00;;;6.69;100.00
41945;BME280;63122;52.424;13.458;2023-04-30T04:13:57;101573.88;;;6.63;100.00
41945;BME280;63122;52.424;13.458;2023-04-30T04:15:53;101569.25;;;6.67;100.00
41945;BME280;63122;52.424;13.458;2023-04-30T04:17:52;101572.53;;;6.71;100.00
41945;BME280;63122;52.424;13.458;2023-04-30T04:19:52;101573.47;;;6.70;100.00
41945;BME280;63122;52.424;13.458;2023-04-30T04:21:54;101572.44;;;6.59;100.00
41945;BME280;63122;52.424;13.458;2023-04-30T04:23:51;101575.13;;;6.58;100.00
41945;BME280;63122;52.424;13.458;2023-04-30T04:25:47;101571.34;;;6.62;100.00
41945;BME280;63122;52.424;13.458;2023-04-30T04:27:47;101576.41;;;6.65;100.00
41945;BME280;63122;52.424;13.458;2023-04-30T04:29:46;101580.78;;;6.52;100.00
41945;BME280;63122;52.424;13.458;2023-04-30T04:31:45;101579.84;;;6.53;100.00
41945;BME280;63122;52.424;13.458;2023-04-30T04:33:46;101581.72;;;6.38;100.00
41945;BME280;63122;52.424;13.458;2023-04-30T04:35:50;101587.91;;;6.37;100.00
41945;BME280;63122;52.424;13.458;2023-04-30T04:37:50;101590.56;;;6.50;100.00
41945;BME280;63122;52.424;13.458;2023-04-30T04:39:46;101592.44;;;6.47;100.00
41945;BME280;63122;52.424;13.458;2023-04-30T04:41:44;101590.34;;;6.53;100.00
41945;BME280;63122;52.424;13.458;2023-04-30T04:43:41;101594.44;;;6.57;100.00
41945;BME280;63122;52.424;13.458;2023-04-30T04:45:37;101594.00;;;6.50;100.00
41945;BME280;63122;52.424;13.458;2023-04-30T04:47:34;101598.94;;;6.55;100.00
41945;BME280;63122;52.424;13.458;2023-04-30T04:49:31;101602.75;;;6.63;100.00
41945;BME280;63122;52.424;13.458;2023-04-30T04:51:28;101604.28;;;6.53;100.00
41945;BME280;63122;52.424;13.458;2023-04-30T04:53:28;101599.03;;;6.53;100.00
41945;BME280;63122;52.424;13.458;2023-04-30T04:55:26;101603.44;;;6.53;100.00
41945;BME280;63122;52.424;13.458;2023-04-30T04:57:23;101609.50;;;6.53;100.00
41945;BME280;63122;52.424;13.458;2023-04-30T04:59:19;101615.41;;;6.57;100.00
41945;BME280;63122;52.424;13.458;2023-04-30T05:01:17;101616.34;;;6.56;100.00
41945;BME280;63122;52.424;13.458;2023-04-30T05:03:17;101618.75;;;6.59;100.00
41945;BME280;63122;52.424;13.458;2023-04-30T05:05:16;101629.47;;;6.56;100.00
41945;BME280;63122;52.424;13.458;2023-04-30T05:07:13;101623.91;;;6.60;100.00
41945;BME280;63122;52.424;13.458;2023-04-30T05:09:11;101622.75;;;6.52;100.00
41945;BME280;63122;52.424;13.458;2023-04-30T05:11:06;101634.91;;;6.53;100.00
41945;BME280;63122;52.424;13.458;2023-04-30T05:13:02;101635.44;;;6.58;100.00
41945;BME280;63122;52.424;13.458;2023-04-30T05:14:57;101635.56;;;6.56;100.00
41945;BME280;63122;52.424;13.458;2023-04-30T05:16:52;101639.00;;;6.57;100.00
41945;BME280;63122;52.424;13.458;2023-04-30T05:18:47;101646.38;;;6.65;100.00
41945;BME280;63122;52.424;13.458;2023-04-30T05:20:43;101641.41;;;6.60;100.00
41945;BME280;63122;52.424;13.458;2023-04-30T05:22:38;101648.25;;;6.62;100.00
41945;BME280;63122;52.424;13.458;2023-04-30T05:24:36;101652.56;;;6.63;100.00
41945;BME280;63122;52.424;13.458;2023-04-30T05:26:31;101653.38;;;6.64;100.00
41945;BME280;63122;52.424;13.458;2023-04-30T05:28:27;101657.69;;;6.65;100.00
41945;BME280;63122;52.424;13.458;2023-04-30T05:30:22;101665.16;;;6.71;100.00
41945;BME280;63122;52.424;13.458;2023-04-30T05:32:18;101660.84;;;6.57;100.00
41945;BME280;63122;52.424;13.458;2023-04-30T05:34:13;101658.72;;;6.50;100.00
41945;BME280;63122;52.424;13.458;2023-04-30T05:36:08;101666.38;;;6.53;100.00
41945;BME280;63122;52.424;13.458;2023-04-30T05:38:03;101667.09;;;6.55;100.00
41945;BME280;63122;52.424;13.458;2023-04-30T05:40:01;101667.84;;;6.57;100.00
41945;BME280;63122;52.424;13.458;2023-04-30T05:41:57;101671.41;;;6.56;100.00
41945;BME280;63122;52.424;13.458;2023-04-30T05:43:53;101671.84;;;6.62;100.00
41945;BME280;63122;52.424;13.458;2023-04-30T05:45:48;101674.28;;;6.66;100.00
41945;BME280;63122;52.424;13.458;2023-04-30T05:47:43;101676.69;;;6.69;100.00
41945;BME280;63122;52.424;13.458;2023-04-30T05:49:39;101673.03;;;6.71;100.00
41945;BME280;63122;52.424;13.458;2023-04-30T05:51:34;101677.50;;;6.69;100.00
41945;BME280;63122;52.424;13.458;2023-04-30T05:53:29;101678.88;;;6.62;100.00
41945;BME280;63122;52.424;13.458;2023-04-30T05:55:27;101675.00;;;6.68;100.00
41945;BME280;63122;52.424;13.458;2023-04-30T05:57:22;101681.06;;;6.68;100.00
41945;BME280;63122;52.424;13.458;2023-04-30T05:59:18;101677.22;;;6.74;100.00
41945;BME280;63122;52.424;13.458;2023-04-30T06:01:13;101685.09;;;6.74;100.00
41945;BME280;63122;52.424;13.458;2023-04-30T06:03:10;101689.78;;;6.69;100.00
41945;BME280;63122;52.424;13.458;2023-04-30T06:05:06;101691.69;;;6.67;100.00
41945;BME280;63122;52.424;13.458;2023-04-30T06:07:06;101689.88;;;6.67;100.00
41945;BME280;63122;52.424;13.458;2023-04-30T06:09:01;101689.06;;;6.67;100.00
41945;BME280;63122;52.424;13.458;2023-04-30T06:11:00;101689.50;;;6.73;100.00
41945;BME280;63122;52.424;13.458;2023-04-30T06:12:56;101694.22;;;6.81;100.00
41945;BME280;63122;52.424;13.458;2023-04-30T06:14:52;101697.50;;;6.85;100.00
41945;BME280;63122;52.424;13.458;2023-04-30T06:16:47;101694.66;;;6.88;100.00
41945;BME280;63122;52.424;13.458;2023-04-30T06:18:43;101697.19;;;6.89;100.00
41945;BME280;63122;52.424;13.458;2023-04-30T06:20:39;101702.44;;;6.89;100.00
41945;BME280;63122;52.424;13.458;2023-04-30T06:22:35;101698.88;;;6.90;100.00
41945;BME280;63122;52.424;13.458;2023-04-30T06:24:32;101701.50;;;6.90;100.00
41945;BME280;63122;52.424;13.458;2023-04-30T06:26:31;101699.69;;;6.91;100.00
41945;BME280;63122;52.424;13.458;2023-04-30T06:28:29;101704.00;;;6.92;100.00
41945;BME280;63122;52.424;13.458;2023-04-30T06:30:24;101705.19;;;7.01;100.00
41945;BME280;63122;52.424;13.458;2023-04-30T06:32:21;101704.22;;;7.02;100.00
41945;BME280;63122;52.424;13.458;2023-04-30T06:34:17;101708.25;;;7.08;100.00
41945;BME280;63122;52.424;13.458;2023-04-30T06:36:13;101711.06;;;7.04;100.00
41945;BME280;63122;52.424;13.458;2023-04-30T06:38:08;101711.16;;;7.03;100.00
41945;BME280;63122;52.424;13.458;2023-04-30T06:40:05;101710.41;;;7.01;100.00
41945;BME280;63122;52.424;13.458;2023-04-30T06:42:03;101711.78;;;6.94;100.00
41945;BME280;63122;52.424;13.458;2023-04-30T06:43:58;101707.34;;;6.81;100.00
41945;BME280;63122;52.424;13.458;2023-04-30T06:45:54;101704.00;;;6.92;100.00
41945;BME280;63122;52.424;13.458;2023-04-30T06:47:49;101710.13;;;7.05;100.00
41945;BME280;63122;52.424;13.458;2023-04-30T06:49:45;101720.28;;;7.10;100.00
41945;BME280;63122;52.424;13.458;2023-04-30T06:51:40;101707.94;;;7.12;100.00
41945;BME280;63122;52.424;13.458;2023-04-30T06:53:36;101712.22;;;7.00;100.00
41945;BME280;63122;52.424;13.458;2023-04-30T06:55:31;101719.25;;;7.00;100.00
41945;BME280;63122;52.424;13.458;2023-04-30T06:57:29;101707.16;;;6.97;100.00
41945;BME280;63122;52.424;13.458;2023-04-30T06:59:24;101715.16;;;7.09;100.00
41945;BME280;63122;52.424;13.458;2023-04-30T07:01:20;101714.97;;;7.12;100.00
41945;BME280;63122;52.424;13.458;2023-04-30T07:03:15;101711.91;;;7.18;100.00
41945;BME280;63122;52.424;13.458;2023-04-30T07:05:10;101708.88;;;7.24;100.00
41945;BME280;63122;52.424;13.458;2023-04-30T07:07:05;101712.13;;;7.28;100.00
41945;BME280;63122;52.424;13.458;2023-04-30T07:09:01;101710.75;;;7.35;100.00
41945;BME280;63122;52.424;13.458;2023-04-30T07:10:57;101712.34;;;7.38;100.00
41945;BME280;63122;52.424;13.458;2023-04-30T07:12:55;101713.72;;;7.43;100.00
41945;BME280;63122;52.424;13.458;2023-04-30T07:14:50;101714.34;;;7.47;100.00
41945;BME280;63122;52.424;13.458;2023-04-30T07:16:48;101710.03;;;7.46;100.00
41945;BME280;63122;52.424;13.458;2023-04-30T07:18:44;101707.91;;;7.38;100.00
41945;BME280;63122;52.424;13.458;2023-04-30T07:20:40;101709.00;;;7.35;100.00
41945;BME280;63122;52.424;13.458;2023-04-30T07:22:35;101706.47;;;7.34;100.00
41945;BME280;63122;52.424;13.458;2023-04-30T07:24:31;101715.91;;;7.49;100.00
41945;BME280;63122;52.424;13.458;2023-04-30T07:26:26;101717.38;;;7.54;100.00
41945;BME280;63122;52.424;13.458;2023-04-30T07:28:24;101718.25;;;7.54;100.00
41945;BME280;63122;52.424;13.458;2023-04-30T07:30:19;101713.28;;;7.49;100.00
41945;BME280;63122;52.424;13.458;2023-04-30T07:32:16;101718.84;;;7.58;100.00
41945;BME280;63122;52.424;13.458;2023-04-30T07:34:12;101706.44;;;7.60;100.00
41945;BME280;63122;52.424;13.458;2023-04-30T07:36:07;101722.22;;;7.60;100.00
41945;BME280;63122;52.424;13.458;2023-04-30T07:38:15;101719.38;;;7.50;100.00
41945;BME280;63122;52.424;13.458;2023-04-30T08:23:21;101733.59;;;8.35;100.00
41945;BME280;63122;52.424;13.458;2023-04-30T08:25:29;101727.72;;;8.44;100.00
41945;BME280;63122;52.424;13.458;2023-04-30T09:17:14;101746.25;;;9.61;62.70
41945;BME280;63122;52.424;13.458;2023-04-30T09:47:43;101738.91;;;11.72;48.64
41945;BME280;63122;52.424;13.458;2023-04-30T09:49:40;101745.13;;;11.61;46.72
41945;BME280;63122;52.424;13.458;2023-04-30T09:51:52;101740.44;;;11.65;44.42
41945;BME280;63122;52.424;13.458;2023-04-30T09:53:48;101737.03;;;11.84;44.99
41945;BME280;63122;52.424;13.458;2023-04-30T09:59:44;101725.97;;;11.69;45.44
41945;BME280;63122;52.424;13.458;2023-04-30T10:03:54;101727.09;;;11.76;45.33
41945;BME280;63122;52.424;13.458;2023-04-30T10:15:34;101719.22;;;12.86;43.07
41945;BME280;63122;52.424;13.458;2023-04-30T10:20:09;101721.28;;;12.82;39.46
41945;BME280;63122;52.424;13.458;2023-04-30T10:38:57;101711.66;;;13.01;38.99
41945;BME280;63122;52.424;13.458;2023-04-30T10:41:21;101710.44;;;12.76;38.04
41945;BME280;63122;52.424;13.458;2023-04-30T10:43:59;101707.66;;;12.48;37.99
41945;BME280;63122;52.424;13.458;2023-04-30T10:46:24;101700.94;;;13.03;39.63
41945;BME280;63122;52.424;13.458;2023-04-30T10:48:32;101709.94;;;13.67;38.29
41945;BME280;63122;52.424;13.458;2023-04-30T10:50:28;101694.53;;;14.09;36.07
41945;BME280;63122;52.424;13.458;2023-04-30T10:52:28;101703.66;;;14.24;35.91
41945;BME280;63122;52.424;13.458;2023-04-30T10:54:27;101707.00;;;13.43;36.14
41945;BME280;63122;52.424;13.458;2023-04-30T10:56:30;101697.88;;;13.55;37.17
41945;BME280;63122;52.424;13.458;2023-04-30T10:58:29;101706.84;;;13.44;38.13
41945;BME280;63122;52.424;13.458;2023-04-30T11:00:27;101700.75;;;13.72;37.42
41945;BME280;63122;52.424;13.458;2023-04-30T11:02:37;101697.53;;;13.96;36.89
41945;BME280;63122;52.424;13.458;2023-04-30T11:05:10;101699.28;;;13.49;37.24
41945;BME280;63122;52.424;13.458;2023-04-30T11:07:09;101700.56;;;13.35;37.96
41945;BME280;63122;52.424;13.458;2023-04-30T11:09:07;101693.16;;;14.05;38.67
41945;BME280;63122;52.424;13.458;2023-04-30T11:11:08;101683.53;;;14.40;37.88
41945;BME280;63122;52.424;13.458;2023-04-30T11:13:07;101683.91;;;14.63;37.18
41945;BME280;63122;52.424;13.458;2023-04-30T11:15:17;101681.03;;;14.57;39.37
41945;BME280;63122;52.424;13.458;2023-04-30T11:17:20;101683.97;;;14.90;37.21
41945;BME280;63122;52.424;13.458;2023-04-30T11:19:17;101684.19;;;15.23;38.49
41945;BME280;63122;52.424;13.458;2023-04-30T11:21:12;101684.91;;;15.07;37.59
41945;BME280;63122;52.424;13.458;2023-04-30T11:23:09;101682.53;;;14.59;38.89
41945;BME280;63122;52.424;13.458;2023-04-30T11:25:21;101678.13;;;14.86;38.57
41945;BME280;63122;52.424;13.458;2023-04-30T11:27:23;101677.91;;;15.67;36.83
41945;BME280;63122;52.424;13.458;2023-04-30T11:29:21;101677.53;;;15.96;36.74
41945;BME280;63122;52.424;13.458;2023-04-30T11:31:18;101680.91;;;16.32;37.00
41945;BME280;63122;52.424;13.458;2023-04-30T11:33:23;101683.25;;;16.26;36.71
41945;BME280;63122;52.424;13.458;2023-04-30T11:35:23;101676.59;;;16.22;35.54
41945;BME280;63122;52.424;13.458;2023-04-30T11:37:30;101675.94;;;16.53;35.17
41945;BME280;63122;52.424;13.458;2023-04-30T11:40:33;101671.59;;;16.77;34.79
41945;BME280;63122;52.424;13.458;2023-04-30T11:44:01;101675.38;;;17.24;34.53
41945;BME280;63122;52.424;13.458;2023-04-30T12:09:11;101655.59;;;18.60;33.43
41945;BME280;63122;52.424;13.458;2023-04-30T12:11:50;101649.56;;;19.41;32.53
41945;BME280;63122;52.424;13.458;2023-04-30T12:14:17;101657.06;;;19.68;32.37
41945;BME280;63122;52.424;13.458;2023-04-30T12:25:30;101658.69;;;19.99;30.08
41945;BME280;63122;52.424;13.458;2023-04-30T12:27:28;101663.03;;;20.00;30.43
41945;BME280;63122;52.424;13.458;2023-04-30T12:29:25;101656.84;;;20.21;30.38
41945;BME280;63122;52.424;13.458;2023-04-30T12:31:20;101658.41;;;19.79;30.28
41945;BME280;63122;52.424;13.458;2023-04-30T12:33:16;101659.69;;;19.61;31.07
41945;BME280;63122;52.424;13.458;2023-04-30T12:35:13;101646.31;;;18.48;31.62
41945;BME280;63122;52.424;13.458;2023-04-30T12:37:09;101647.81;;;19.19;33.07
41945;BME280;63122;52.424;13.458;2023-04-30T12:39:08;101647.66;;;19.05;31.53
41945;BME280;63122;52.424;13.458;2023-04-30T12:41:10;101651.19;;;18.97;32.48
41945;BME280;63122;52.424;13.458;2023-04-30T12:43:07;101645.91;;;19.64;31.26
41945;BME280;63122;52.424;13.458;2023-04-30T12:45:04;101637.28;;;19.84;30.68
41945;BME280;63122;52.424;13.458;2023-04-30T12:47:06;101642.97;;;20.18;29.19
41945;BME280;63122;52.424;13.458;2023-04-30T12:49:02;101649.81;;;20.42;28.00
41945;BME280;63122;52.424;13.458;2023-04-30T12:50:59;101642.81;;;20.48;28.61
41945;BME280;63122;52.424;13.458;2023-04-30T12:53:01;101638.09;;;20.78;28.85
41945;BME280;63122;52.424;13.458;2023-04-30T12:55:13;101636.44;;;20.77;27.85
41945;BME280;63122;52.424;13.458;2023-04-30T12:57:13;101637.34;;;20.56;28.08
41945;BME280;63122;52.424;13.458;2023-04-30T12:59:14;101636.03;;;20.52;29.10
41945;BME280;63122;52.424;13.458;2023-04-30T13:01:11;101631.25;;;20.69;28.35
41945;BME280;63122;52.424;13.458;2023-04-30T13:03:06;101637.38;;;20.63;27.97
41945;BME280;63122;52.424;13.458;2023-04-30T13:05:08;101633.38;;;19.86;28.35
41945;BME280;63122;52.424;13.458;2023-04-30T13:10:23;101627.13;;;18.82;28.30
41945;BME280;63122;52.424;13.458;2023-04-30T13:12:54;101621.81;;;19.27;27.48
41945;BME280;63122;52.424;13.458;2023-04-30T13:16:02;101628.47;;;20.05;27.00
41945;BME280;63122;52.424;13.458;2023-04-30T13:21:28;101630.13;;;19.03;29.08
41945;BME280;63122;52.424;13.458;2023-04-30T13:23:24;101623.19;;;19.75;28.66
41945;BME280;63122;52.424;13.458;2023-04-30T13:25:20;101629.09;;;20.07;28.56
41945;BME280;63122;52.424;13.458;2023-04-30T13:27:16;101626.22;;;20.59;27.98
41945;BME280;63122;52.424;13.458;2023-04-30T13:35:42;101618.25;;;20.72;27.88
41945;BME280;63122;52.424;13.458;2023-04-30T13:37:42;101617.16;;;21.24;26.71
41945;BME280;63122;52.424;13.458;2023-04-30T13:39:39;101614.56;;;21.57;26.30
41945;BME280;63122;52.424;13.458;2023-04-30T13:41:36;101611.75;;;21.79;26.77
41945;BME280;63122;52.424;13.458;2023-04-30T13:43:32;101604.13;;;21.96;28.31
41945;BME280;63122;52.424;13.458;2023-04-30T13:45:34;101610.97;;;22.33;25.88
41945;BME280;63122;52.424;13.458;2023-04-30T13:47:30;101603.94;;;22.32;27.46
41945;BME280;63122;52.424;13.458;2023-04-30T13:49:25;101598.75;;;22.43;27.30
41945;BME280;63122;52.424;13.458;2023-04-30T13:51:26;101599.78;;;22.69;26.68
41945;BME280;63122;52.424;13.458;2023-04-30T13:53:23;101595.97;;;23.04;26.36
41945;BME280;63122;52.424;13.458;2023-04-30T13:55:21;101588.41;;;22.74;25.50
41945;BME280;63122;52.424;13.458;2023-04-30T13:57:20;101593.59;;;22.76;25.20
41945;BME280;63122;52.424;13.458;2023-04-30T13:59:18;101590.06;;;22.75;25.72
41945;BME280;63122;52.424;13.458;2023-04-30T14:01:18;101587.53;;;22.94;26.22
41945;BME280;63122;52.424;13.458;2023-04-30T14:03:17;101585.66;;;22.94;26.77
41945;BME280;63122;52.424;13.458;2023-04-30T14:05:17;101584.91;;;21.99;25.51
41945;BME280;63122;52.424;13.458;2023-04-30T14:07:19;101584.91;;;21.17;27.27
41945;BME280;63122;52.424;13.458;2023-04-30T14:09:17;101579.75;;;21.71;27.54